usa flag      colorado flag

Language: 

TigerDenWX History Data from Weather Underground


TigerDenWX Weather Station Historical Data
 
Daily Summary for January 23, 2020 Units:  English    Metric   Both
Daily Weekly Monthly Yearly Custom
  Current: High: Low: Average:
Temperature: 29.8 °F 29.8 °F 24.7 °F 26.3 °F
Dew Point: 13.4 °F 16.5 °F 11.6 °F 13.4 °F
Humidity: 50% 67% 50% 58%
Wind Speed: 2mph 4mph 0mph 0.3mph
Wind Gust: 3mph 9mph - -
WindNNE - - East
Pressure: 30.20 in 30.20 in 30.09 in -
Precipitation: 0 in      
Historical Graphs
 
 
Tabular Data for January 23, 2020
Time Temperature Dew Point Pressure Wind Wind Speed Wind Gust Humidity Rainfall Rate (Hourly) solar
00:00 26.9 °F 14.5 °F 30.09 in Calm     59% 0 in 0.00 W/m2
00:15 26.6 °F 14.6 °F 30.09 in Calm     60% 0 in 0.00 W/m2
00:30 26.4 °F 14.8 °F 30.09 in Calm     61% 0 in 0.00 W/m2
00:45 26.2 °F 14.6 °F 30.10 in Calm     61% 0 in 0.00 W/m2
01:00 25.9 °F 14.7 °F 30.09 in Calm     62% 0 in 0.00 W/m2
01:15 26 °F 16.5 °F 30.10 in Calm     67% 0 in 0.00 W/m2
01:30 25.9 °F 16.1 °F 30.11 in Calm     66% 0 in 0.00 W/m2
01:45 25.6 °F 15.8 °F 30.12 in Calm     66% 0 in 0.00 W/m2
02:00 25.7 °F 15.9 °F 30.13 in Calm   2 mph 66% 0 in 0.00 W/m2
02:15 25.4 °F 15.3 °F 30.14 in Calm   1 mph 65% 0 in 0.00 W/m2
02:30 25 °F 13.8 °F 30.14 in Calm   1 mph 62% 0 in 0.00 W/m2
02:45 24.7 °F 12.8 °F 30.14 in Calm   1 mph 60% 0 in 0.00 W/m2
03:00 24.8 °F 12.1 °F 30.14 in Calm   1 mph 58% 0 in 0.00 W/m2
03:15 24.8 °F 11.7 °F 30.14 in Calm   1 mph 57% 0 in 0.00 W/m2
03:30 24.7 °F 11.6 °F 30.13 in Calm   1 mph 57% 0 in 0.00 W/m2
03:45 24.7 °F 11.6 °F 30.14 in Calm     57% 0 in 0.00 W/m2
04:00 25.5 °F 12 °F 30.13 in Calm   1 mph 56% 0 in 0.00 W/m2
04:15 25.2 °F 12.1 °F 30.14 in Calm     57% 0 in 0.00 W/m2
04:30 25.1 °F 12 °F 30.15 in Calm   2 mph 57% 0 in 0.00 W/m2
04:45 25.1 °F 12.8 °F 30.14 in Calm   1 mph 59% 0 in 0.00 W/m2
05:00 25.2 °F 12.9 °F 30.15 in Calm     59% 0 in 0.00 W/m2
05:15 25.4 °F 12.7 °F 30.14 in Calm   1 mph 58% 0 in 0.00 W/m2
05:30 25.3 °F 12.6 °F 30.15 in NE 1 mph 2 mph 58% 0 in 0.00 W/m2
05:45 26.7 °F 12.7 °F 30.16 in Calm   9 mph 55% 0 in 0.00 W/m2
06:00 28 °F 12.6 °F 30.16 in NNE 4 mph 7 mph 52% 0 in 0.00 W/m2
06:15 28.5 °F 12.6 °F 30.16 in Calm   6 mph 51% 0 in 0.00 W/m2
06:30 28.5 °F 12.6 °F 30.18 in Calm   3 mph 51% 0 in 0.00 W/m2
06:45 28.3 °F 12.9 °F 30.17 in Calm   3 mph 52% 0 in 0.00 W/m2
07:00 28.1 °F 12.7 °F 30.17 in Calm   5 mph 52% 0 in 0.00 W/m2
07:15 28.2 °F 12.8 °F 30.18 in Calm   1 mph 52% 0 in 9.00 W/m2
07:30 28.1 °F 12.7 °F 30.19 in Calm   1 mph 52% 0 in 25.00 W/m2
07:45 28.6 °F 12.7 °F 30.20 in West 3 mph 8 mph 51% 0 in 37.00 W/m2
08:00 29.8 °F 13.4 °F 30.20 in NNE 2 mph 3 mph 50% 0 in 40.00 W/m2
SE Aurora, Colorado Weather
Compliments of Weather Underground - 2 mb
top